createdAt,value
2017-05-01T00:00:08.190Z,72922
2017-05-01T00:00:18.277Z,72923
2017-05-01T00:00:28.080Z,72920
2017-05-01T00:00:38.174Z,72921
2017-05-01T00:00:47.980Z,72918
2017-05-01T00:00:58.072Z,72917
2017-05-01T00:01:08.160Z,72915
2017-05-01T00:01:17.968Z,72911
2017-05-01T00:01:28.059Z,72920
2017-05-01T00:01:37.863Z,72921
2017-05-01T00:01:47.672Z,72925
2017-05-01T00:01:57.762Z,72923
2017-05-01T00:02:07.856Z,72922
2017-05-01T00:02:17.677Z,72921
2017-05-01T00:02:27.777Z,72920
2017-05-01T00:02:37.874Z,72912
2017-05-01T00:02:47.964Z,72921
2017-05-01T00:02:58.064Z,72929
2017-05-01T00:03:07.870Z,72922
2017-05-01T00:03:17.965Z,72927
2017-05-01T00:03:28.064Z,72927
2017-05-01T00:03:37.891Z,72921
2017-05-01T00:03:47.987Z,72918
2017-05-01T00:03:57.797Z,72917
2017-05-01T00:04:07.887Z,72913
2017-05-01T00:04:17.696Z,72917
2017-05-01T00:04:27.792Z,72917
2017-05-01T00:04:37.627Z,72923
2017-05-01T00:04:47.720Z,72919
2017-05-01T00:04:57.818Z,72923
2017-05-01T00:05:07.620Z,72925
2017-05-01T00:05:17.423Z,72922
2017-05-01T00:05:27.235Z,72926
2017-05-01T00:05:37.043Z,72928
2017-05-01T00:05:47.138Z,72933
2017-05-01T00:05:57.227Z,72938
2017-05-01T00:06:07.330Z,72934
2017-05-01T00:06:16.838Z,72932
2017-05-01T00:06:26.651Z,72924
2017-05-01T00:06:36.775Z,72921
2017-05-01T00:06:46.868Z,72918
2017-05-01T00:06:56.961Z,72911
2017-05-01T00:07:07.053Z,72916
2017-05-01T00:07:16.889Z,72910
2017-05-01T00:07:26.985Z,72917
2017-05-01T00:07:37.095Z,72916
2017-05-01T00:07:47.194Z,72924
2017-05-01T00:07:57.439Z,72923
2017-05-01T00:08:07.532Z,72925
2017-05-01T00:08:17.632Z,72927
2017-05-01T00:08:27.722Z,72924
2017-05-01T00:08:37.831Z,72930
2017-05-01T00:08:47.926Z,72923
2017-05-01T00:08:58.025Z,72922
2017-05-01T00:09:07.827Z,72921
2017-05-01T00:09:17.635Z,72920
2017-05-01T00:09:27.732Z,72918
2017-05-01T00:09:37.826Z,72919
2017-05-01T00:09:47.920Z,72926
2017-05-01T00:09:58.014Z,72922
2017-05-01T00:10:07.530Z,72924
2017-05-01T00:10:17.631Z,72919
2017-05-01T00:10:27.436Z,72917
2017-05-01T00:10:37.526Z,72911
2017-05-01T00:10:47.332Z,72914
2017-05-01T00:10:57.428Z,72915
2017-05-01T00:11:07.523Z,72918
2017-05-01T00:11:17.614Z,72920
2017-05-01T00:11:27.706Z,72919
2017-05-01T00:11:37.798Z,72913
2017-05-01T00:11:47.887Z,72912
2017-05-01T00:11:57.978Z,72912
2017-05-01T00:12:07.498Z,72905
2017-05-01T00:12:17.018Z,72903
2017-05-01T00:12:27.111Z,72904
2017-05-01T00:12:37.203Z,72903
2017-05-01T00:12:47.305Z,72905
2017-05-01T00:12:57.114Z,72905
2017-05-01T00:13:07.214Z,72912
2017-05-01T00:13:17.307Z,72911
2017-05-01T00:13:27.402Z,72907
2017-05-01T00:13:37.491Z,72911
2017-05-01T00:13:47.577Z,72910
2017-05-01T00:13:57.426Z,72904
2017-05-01T00:14:07.523Z,72906
2017-05-01T00:14:17.064Z,72905
2017-05-01T00:14:27.155Z,72899
2017-05-01T00:14:37.243Z,72908
2017-05-01T00:14:47.046Z,72907
2017-05-01T00:14:57.148Z,72914
2017-05-01T00:15:07.241Z,72912
2017-05-01T00:15:17.339Z,72913
2017-05-01T00:15:27.430Z,72913
2017-05-01T00:15:37.524Z,72914
2017-05-01T00:15:47.615Z,72913
2017-05-01T00:15:57.450Z,72909
2017-05-01T00:16:07.537Z,72909
2017-05-01T00:16:17.369Z,72904
2017-05-01T00:16:27.458Z,72901
2017-05-01T00:16:37.547Z,72899
2017-05-01T00:16:47.636Z,72900
2017-05-01T00:16:57.727Z,72897
2017-05-01T00:17:07.817Z,72889
2017-05-01T00:17:17.334Z,72892
2017-05-01T00:17:27.432Z,72885
2017-05-01T00:17:37.533Z,72891
2017-05-01T00:17:47.621Z,72891
2017-05-01T00:17:57.719Z,72889
2017-05-01T00:18:07.813Z,72894
2017-05-01T00:18:17.899Z,72897
2017-05-01T00:18:28.024Z,72900
2017-05-01T00:18:37.834Z,72897
2017-05-01T00:18:47.929Z,72898
2017-05-01T00:18:58.023Z,72898
2017-05-01T00:19:08.119Z,72899
2017-05-01T00:19:18.211Z,72899
2017-05-01T00:19:28.311Z,72904
2017-05-01T00:19:37.830Z,72900
2017-05-01T00:19:47.929Z,72906
2017-05-01T00:19:58.020Z,72911
2017-05-01T00:20:08.108Z,72907
2017-05-01T00:20:17.630Z,72899
2017-05-01T00:20:27.723Z,72901
2017-05-01T00:20:37.816Z,72902
2017-05-01T00:20:47.628Z,72909
2017-05-01T00:20:57.720Z,72911
2017-05-01T00:21:07.807Z,72910
2017-05-01T00:21:17.903Z,72912
2017-05-01T00:21:27.997Z,72911
2017-05-01T00:21:38.090Z,72905
2017-05-01T00:21:48.183Z,72907
2017-05-01T00:21:58.276Z,72898
2017-05-01T00:22:08.078Z,72897
2017-05-01T00:22:18.168Z,72898
2017-05-01T00:22:28.266Z,72897
2017-05-01T00:22:38.353Z,72902
2017-05-01T00:22:48.162Z,72901
2017-05-01T00:22:58.256Z,72904
2017-05-01T00:23:08.058Z,72900
2017-05-01T00:23:18.157Z,72902
2017-05-01T00:23:27.959Z,72890
2017-05-01T00:23:38.059Z,72894
2017-05-01T00:23:48.146Z,72887
2017-05-01T00:23:58.243Z,72890
2017-05-01T00:24:08.049Z,72890
2017-05-01T00:24:17.864Z,72893
2017-05-01T00:24:27.992Z,72896
2017-05-01T00:24:38.083Z,72896
2017-05-01T00:24:48.172Z,72896
2017-05-01T00:24:58.273Z,72914
2017-05-01T00:25:07.786Z,72914
2017-05-01T00:25:17.595Z,72902
2017-05-01T00:25:27.397Z,72903
2017-05-01T00:25:37.494Z,72906
2017-05-01T00:25:47.583Z,72906
2017-05-01T00:25:57.725Z,72906
2017-05-01T00:26:07.819Z,72897
2017-05-01T00:26:17.628Z,72894
2017-05-01T00:26:27.718Z,72895
2017-05-01T00:26:37.519Z,72899
2017-05-01T00:26:47.608Z,72899
2017-05-01T00:26:57.704Z,72898
2017-05-01T00:27:07.519Z,72895
2017-05-01T00:27:17.328Z,72889
2017-05-01T00:27:27.426Z,72892
2017-05-01T00:27:37.516Z,72892
2017-05-01T00:27:47.037Z,72893
2017-05-01T00:27:56.845Z,72893
2017-05-01T00:28:06.948Z,72881
2017-05-01T00:28:16.751Z,72879
2017-05-01T00:28:26.849Z,72884
2017-05-01T00:28:36.945Z,72878
2017-05-01T00:28:47.049Z,72884
2017-05-01T00:28:56.863Z,72879
2017-05-01T00:29:06.960Z,72884
2017-05-01T00:29:17.060Z,72877
2017-05-01T00:29:27.151Z,72870
2017-05-01T00:29:37.238Z,72877
2017-05-01T00:29:47.329Z,72865
2017-05-01T00:29:57.433Z,72872
2017-05-01T00:30:07.531Z,72884
2017-05-01T00:30:17.343Z,72878
2017-05-01T00:30:27.435Z,72884
2017-05-01T00:30:37.523Z,72888
2017-05-01T00:30:47.617Z,72884
2017-05-01T00:30:57.709Z,72882
2017-05-01T00:31:07.802Z,72890
2017-05-01T00:31:17.903Z,72892
2017-05-01T00:31:27.998Z,72908
2017-05-01T00:31:38.091Z,72911
2017-05-01T00:31:47.901Z,72906
2017-05-01T00:31:57.996Z,72898
2017-05-01T00:32:07.803Z,72897
2017-05-01T00:32:17.607Z,72901
2017-05-01T00:32:27.715Z,72906
2017-05-01T00:32:37.811Z,72904
2017-05-01T00:32:47.905Z,72906
2017-05-01T00:32:57.998Z,72902
2017-05-01T00:33:08.095Z,72899
2017-05-01T00:33:17.903Z,72895
2017-05-01T00:33:27.994Z,72894
2017-05-01T00:33:38.102Z,72893
2017-05-01T00:33:48.198Z,72895
2017-05-01T00:33:58.296Z,72893
2017-05-01T00:34:07.811Z,72896
2017-05-01T00:34:17.911Z,72896
2017-05-01T00:34:28.009Z,72894
2017-05-01T00:34:38.110Z,72890
2017-05-01T00:34:47.944Z,72893
2017-05-01T00:34:58.041Z,72895
2017-05-01T00:35:07.844Z,72895
2017-05-01T00:35:17.940Z,72888
2017-05-01T00:35:27.743Z,72883
2017-05-01T00:35:37.833Z,72888
2017-05-01T00:35:47.635Z,72885
2017-05-01T00:35:57.724Z,72884
2017-05-01T00:36:07.524Z,72886
2017-05-01T00:36:17.620Z,72883
2017-05-01T00:36:27.712Z,72891
2017-05-01T00:36:37.519Z,72883
2017-05-01T00:36:47.032Z,72884
2017-05-01T00:36:56.833Z,72885
2017-05-01T00:37:06.925Z,72888
2017-05-01T00:37:17.019Z,72889
2017-05-01T00:37:27.117Z,72882
2017-05-01T00:37:36.639Z,72881
2017-05-01T00:37:46.444Z,72882
2017-05-01T00:37:56.550Z,72879
2017-05-01T00:38:06.642Z,72872
2017-05-01T00:38:16.728Z,72870
2017-05-01T00:38:26.822Z,72869
2017-05-01T00:38:36.933Z,72874
2017-05-01T00:38:47.040Z,72873
2017-05-01T00:38:56.279Z,72866
2017-05-01T00:39:06.385Z,72871
2017-05-01T00:39:16.479Z,72862
2017-05-01T00:39:26.572Z,72862
2017-05-01T00:39:36.382Z,72867
2017-05-01T00:39:46.471Z,72870
2017-05-01T00:39:56.575Z,72873
2017-05-01T00:40:06.666Z,72872
2017-05-01T00:40:16.761Z,72875
2017-05-01T00:40:26.858Z,72882
2017-05-01T00:40:36.662Z,72887
2017-05-01T00:40:46.469Z,72892
2017-05-01T00:40:56.561Z,72886
2017-05-01T00:41:06.659Z,72886
2017-05-01T00:41:16.759Z,72892
2017-05-01T00:41:26.846Z,72886
2017-05-01T00:41:36.944Z,72890
2017-05-01T00:41:47.035Z,72880
2017-05-01T00:41:57.128Z,72877
2017-05-01T00:42:07.218Z,72871
2017-05-01T00:42:17.314Z,72867
2017-05-01T00:42:27.407Z,72880
2017-05-01T00:42:37.499Z,72879
2017-05-01T00:42:47.308Z,72879
2017-05-01T00:42:57.401Z,72887
2017-05-01T00:43:07.495Z,72886
2017-05-01T00:43:17.298Z,72897
2017-05-01T00:43:27.403Z,72891
2017-05-01T00:43:37.497Z,72891
2017-05-01T00:43:47.303Z,72904
2017-05-01T00:43:57.404Z,72902
2017-05-01T00:44:07.502Z,72904
2017-05-01T00:44:17.306Z,72902
2017-05-01T00:44:26.825Z,72902
2017-05-01T00:44:36.920Z,72906
2017-05-01T00:44:47.014Z,72901
2017-05-01T00:44:56.820Z,72907
2017-05-01T00:45:06.915Z,72904
2017-05-01T00:45:17.006Z,72905
2017-05-01T00:45:26.807Z,72907
2017-05-01T00:45:36.622Z,72904
2017-05-01T00:45:46.715Z,72906
2017-05-01T00:45:56.809Z,72898
2017-05-01T00:46:06.612Z,72902
2017-05-01T00:46:16.414Z,72897
2017-05-01T00:46:26.502Z,72895
2017-05-01T00:46:36.065Z,72892
2017-05-01T00:46:46.156Z,72885
2017-05-01T00:46:56.240Z,72885
2017-05-01T00:47:06.083Z,72885
2017-05-01T00:47:16.175Z,72885
2017-05-01T00:47:26.263Z,72880
2017-05-01T00:47:36.358Z,72885
2017-05-01T00:47:45.875Z,72881
2017-05-01T00:47:55.962Z,72889
2017-05-01T00:48:06.055Z,72888
2017-05-01T00:48:15.864Z,72884
2017-05-01T00:48:25.964Z,72889
2017-05-01T00:48:36.055Z,72888
2017-05-01T00:48:46.144Z,72884
2017-05-01T00:48:56.245Z,72882
2017-05-01T00:49:06.337Z,72884
2017-05-01T00:49:16.429Z,72889
2017-05-01T00:49:26.518Z,72885
2017-05-01T00:49:36.331Z,72893
2017-05-01T00:49:46.428Z,72888
2017-05-01T00:49:56.531Z,72888
2017-05-01T00:50:06.624Z,72890
2017-05-01T00:50:16.427Z,72889
2017-05-01T00:50:26.239Z,72887
2017-05-01T00:50:36.337Z,72887
2017-05-01T00:50:46.427Z,72892
2017-05-01T00:50:56.514Z,72893
2017-05-01T00:51:06.317Z,72894
2017-05-01T00:51:16.450Z,72889
2017-05-01T00:51:26.546Z,72896
2017-05-01T00:51:36.675Z,72892
2017-05-01T00:51:46.770Z,72890
2017-05-01T00:51:56.862Z,72889
2017-05-01T00:52:06.381Z,72891
2017-05-01T00:52:16.476Z,72888
2017-05-01T00:52:26.566Z,72893
2017-05-01T00:52:36.666Z,72889
2017-05-01T00:52:46.468Z,72891
2017-05-01T00:52:56.562Z,72888
2017-05-01T00:53:06.363Z,72882
2017-05-01T00:53:16.458Z,72899
2017-05-01T00:53:26.553Z,72899
2017-05-01T00:53:36.653Z,72902
2017-05-01T00:53:46.742Z,72892
2017-05-01T00:53:56.841Z,72899
2017-05-01T00:54:06.938Z,72908
2017-05-01T00:54:17.028Z,72904
2017-05-01T00:54:27.125Z,72902
2017-05-01T00:54:37.221Z,72892
2017-05-01T00:54:47.352Z,72887
2017-05-01T00:54:57.161Z,72903
2017-05-01T00:55:06.966Z,72904
2017-05-01T00:55:17.060Z,72899
2017-05-01T00:55:27.143Z,72892
2017-05-01T00:55:37.236Z,72895
2017-05-01T00:55:47.333Z,72889
2017-05-01T00:55:57.420Z,72888
2017-05-01T00:56:07.549Z,72884
2017-05-01T00:56:17.366Z,72883
2017-05-01T00:56:27.478Z,72886
2017-05-01T00:56:37.575Z,72882
2017-05-01T00:56:47.669Z,72879
2017-05-01T00:56:57.761Z,72879
2017-05-01T00:57:07.850Z,72882
2017-05-01T00:57:17.946Z,72879
2017-05-01T00:57:28.057Z,72881
2017-05-01T00:57:38.150Z,72880
2017-05-01T00:57:47.662Z,72877
2017-05-01T00:57:57.753Z,72873
2017-05-01T00:58:07.855Z,72870
2017-05-01T00:58:17.385Z,72863
2017-05-01T00:58:27.490Z,72879
2017-05-01T00:58:37.590Z,72883
2017-05-01T00:58:47.679Z,72879
2017-05-01T00:58:57.779Z,72872
2017-05-01T00:59:07.591Z,72884
2017-05-01T00:59:17.447Z,72891
2017-05-01T00:59:27.537Z,72903
2017-05-01T00:59:37.343Z,72901
2017-05-01T00:59:47.145Z,72890
2017-05-01T00:59:56.948Z,72887
2017-05-01T01:00:06.754Z,72879
2017-05-01T01:00:16.844Z,72884
2017-05-01T01:00:26.655Z,72882
2017-05-01T01:00:36.752Z,72880
2017-05-01T01:00:46.848Z,72880
2017-05-01T01:00:56.934Z,72882
2017-05-01T01:01:07.027Z,72886
2017-05-01T01:01:17.119Z,72882
2017-05-01T01:01:27.205Z,72884
2017-05-01T01:01:37.010Z,72882
2017-05-01T01:01:47.099Z,72884
2017-05-01T01:01:56.621Z,72885
2017-05-01T01:02:06.716Z,72890
2017-05-01T01:02:16.807Z,72888
2017-05-01T01:02:26.898Z,72885
2017-05-01T01:02:36.988Z,72880
2017-05-01T01:02:47.081Z,72878
2017-05-01T01:02:56.888Z,72880
2017-05-01T01:03:06.998Z,72879
2017-05-01T01:03:16.810Z,72875
2017-05-01T01:03:26.620Z,72882
2017-05-01T01:03:36.719Z,72887
2017-05-01T01:03:46.811Z,72890
2017-05-01T01:03:56.909Z,72886
2017-05-01T01:04:07.008Z,72886
2017-05-01T01:04:17.100Z,72886
2017-05-01T01:04:27.200Z,72879
2017-05-01T01:04:36.720Z,72881
2017-05-01T01:04:46.820Z,72879
2017-05-01T01:04:56.920Z,72884
2017-05-01T01:05:07.017Z,72879
2017-05-01T01:05:17.111Z,72883
2017-05-01T01:05:27.210Z,72877
2017-05-01T01:05:37.012Z,72882
2017-05-01T01:05:47.100Z,72890
2017-05-01T01:05:56.908Z,72881
2017-05-01T01:06:07.001Z,72885
2017-05-01T01:06:17.091Z,72888
2017-05-01T01:06:27.180Z,72884
2017-05-01T01:06:36.982Z,72890
2017-05-01T01:06:47.071Z,72892
2017-05-01T01:06:56.875Z,72893
2017-05-01T01:07:06.968Z,72897
2017-05-01T01:07:17.067Z,72899
2017-05-01T01:07:27.154Z,72898
2017-05-01T01:07:37.255Z,72896
2017-05-01T01:07:47.348Z,72895
2017-05-01T01:07:57.448Z,72900
2017-05-01T01:08:06.975Z,72901
2017-05-01T01:08:16.780Z,72897
2017-05-01T01:08:26.879Z,72903
2017-05-01T01:08:36.969Z,72904
2017-05-01T01:08:47.059Z,72903
2017-05-01T01:08:56.870Z,72899
2017-05-01T01:09:06.966Z,72904
2017-05-01T01:09:17.060Z,72905
2017-05-01T01:09:27.153Z,72904
2017-05-01T01:09:36.958Z,72906
2017-05-01T01:09:47.047Z,72911
2017-05-01T01:09:56.569Z,72907
2017-05-01T01:10:06.667Z,72907
2017-05-01T01:10:16.758Z,72910
2017-05-01T01:10:26.848Z,72910
2017-05-01T01:10:36.972Z,72917
2017-05-01T01:10:47.066Z,72915
2017-05-01T01:10:57.157Z,72919
2017-05-01T01:11:06.964Z,72918
2017-05-01T01:11:17.054Z,72920
2017-05-01T01:11:27.145Z,72912
2017-05-01T01:11:37.236Z,72912
2017-05-01T01:11:47.332Z,72921
2017-05-01T01:11:57.432Z,72920
2017-05-01T01:12:07.526Z,72920
2017-05-01T01:12:17.342Z,72916
2017-05-01T01:12:27.431Z,72917
2017-05-01T01:12:37.236Z,72919
2017-05-01T01:12:47.339Z,72912
2017-05-01T01:12:57.441Z,72908
2017-05-01T01:13:07.531Z,72906
2017-05-01T01:13:17.338Z,72900
2017-05-01T01:13:27.145Z,72892
2017-05-01T01:13:37.242Z,72895
2017-05-01T01:13:47.339Z,72890
2017-05-01T01:13:57.432Z,72886
2017-05-01T01:14:07.528Z,72903
2017-05-01T01:14:17.333Z,72911
2017-05-01T01:14:27.424Z,72913
2017-05-01T01:14:37.515Z,72912
2017-05-01T01:14:47.321Z,72907
2017-05-01T01:14:57.125Z,72908
2017-05-01T01:15:07.217Z,72906
2017-05-01T01:15:17.310Z,72901
2017-05-01T01:15:27.401Z,72905
2017-05-01T01:15:37.205Z,72904
2017-05-01T01:15:47.307Z,72903
2017-05-01T01:15:57.112Z,72901
2017-05-01T01:16:07.202Z,72898
2017-05-01T01:16:17.296Z,72895
2017-05-01T01:16:27.384Z,72896
2017-05-01T01:16:37.194Z,72900
2017-05-01T01:16:47.289Z,72894
2017-05-01T01:16:57.375Z,72896
2017-05-01T01:17:06.905Z,72893
2017-05-01T01:17:16.999Z,72891
2017-05-01T01:17:27.088Z,72891
2017-05-01T01:17:37.187Z,72895
2017-05-01T01:17:47.279Z,72900
2017-05-01T01:17:57.378Z,72894
2017-05-01T01:18:07.186Z,72894
2017-05-01T01:18:16.996Z,72893
2017-05-01T01:18:27.092Z,72892
2017-05-01T01:18:37.184Z,72893
2017-05-01T01:18:47.284Z,72892
2017-05-01T01:18:57.391Z,72892
2017-05-01T01:19:07.482Z,72886
2017-05-01T01:19:16.996Z,72886
2017-05-01T01:19:27.087Z,72897
2017-05-01T01:19:36.891Z,72901
2017-05-01T01:19:46.986Z,72894
2017-05-01T01:19:57.084Z,72894
2017-05-01T01:20:07.180Z,72891
2017-05-01T01:20:17.272Z,72885
2017-05-01T01:20:26.785Z,72882
2017-05-01T01:20:36.878Z,72887
2017-05-01T01:20:46.718Z,72884
2017-05-01T01:20:56.524Z,72878
2017-05-01T01:21:06.617Z,72879
2017-05-01T01:21:16.430Z,72882
2017-05-01T01:21:26.522Z,72887
2017-05-01T01:21:36.610Z,72886
2017-05-01T01:21:46.709Z,72882
2017-05-01T01:21:56.803Z,72883
2017-05-01T01:22:06.603Z,72878
2017-05-01T01:22:16.699Z,72876
2017-05-01T01:22:26.788Z,72869
2017-05-01T01:22:36.881Z,72880
2017-05-01T01:22:46.974Z,72876
2017-05-01T01:22:57.066Z,72895
2017-05-01T01:23:07.161Z,72905
2017-05-01T01:23:17.260Z,72895
2017-05-01T01:23:27.352Z,72889
2017-05-01T01:23:37.449Z,72885
2017-05-01T01:23:47.566Z,72880
2017-05-01T01:23:57.664Z,72879
2017-05-01T01:24:07.759Z,72878
2017-05-01T01:24:17.563Z,72879
2017-05-01T01:24:27.657Z,72890
2017-05-01T01:24:37.756Z,72890
2017-05-01T01:24:47.850Z,72884
2017-05-01T01:24:57.947Z,72885
2017-05-01T01:25:08.037Z,72885
2017-05-01T01:25:17.845Z,72873
2017-05-01T01:25:27.968Z,72869
2017-05-01T01:25:38.060Z,72871
2017-05-01T01:25:48.148Z,72875
2017-05-01T01:25:57.953Z,72880
2017-05-01T01:26:08.038Z,72880
2017-05-01T01:26:17.858Z,72887
2017-05-01T01:26:27.953Z,72885
2017-05-01T01:26:38.053Z,72886
2017-05-01T01:26:48.145Z,72884
2017-05-01T01:26:58.234Z,72887
2017-05-01T01:27:08.031Z,72882
2017-05-01T01:27:17.838Z,72879
2017-05-01T01:27:27.965Z,72875
2017-05-01T01:27:38.061Z,72876
2017-05-01T01:27:48.159Z,72874
2017-05-01T01:27:58.254Z,72875
2017-05-01T01:28:07.797Z,72877
2017-05-01T01:28:17.887Z,72881
2017-05-01T01:28:27.982Z,72879
2017-05-01T01:28:38.084Z,72875
2017-05-01T01:28:48.174Z,72878
2017-05-01T01:28:58.287Z,72874
2017-05-01T01:29:08.096Z,72868
2017-05-01T01:29:18.183Z,72871
2017-05-01T01:29:28.290Z,72877
2017-05-01T01:29:38.380Z,72876
2017-05-01T01:29:48.471Z,72876
2017-05-01T01:29:58.284Z,72882
2017-05-01T01:30:07.828Z,72876
2017-05-01T01:30:17.918Z,72887
2017-05-01T01:30:28.008Z,72888
2017-05-01T01:30:37.811Z,72891
2017-05-01T01:30:47.900Z,72886
2017-05-01T01:30:57.703Z,72886
2017-05-01T01:31:07.795Z,72885
2017-05-01T01:31:17.606Z,72886
2017-05-01T01:31:27.696Z,72881
2017-05-01T01:31:37.782Z,72884
2017-05-01T01:31:47.876Z,72879
2017-05-01T01:31:57.682Z,72881
2017-05-01T01:32:07.481Z,72878
2017-05-01T01:32:17.289Z,72879
2017-05-01T01:32:27.412Z,72873
2017-05-01T01:32:37.513Z,72878
2017-05-01T01:32:47.609Z,72877
2017-05-01T01:32:57.709Z,72876
2017-05-01T01:33:07.805Z,72879
2017-05-01T01:33:17.902Z,72880
2017-05-01T01:33:27.995Z,72879
2017-05-01T01:33:37.803Z,72875
2017-05-01T01:33:47.897Z,72869
2017-05-01T01:33:57.996Z,72867
2017-05-01T01:34:07.801Z,72862
2017-05-01T01:34:17.619Z,72864
2017-05-01T01:34:27.715Z,72861
2017-05-01T01:34:37.519Z,72864
2017-05-01T01:34:47.036Z,72866
2017-05-01T01:34:56.556Z,72863
2017-05-01T01:35:06.367Z,72863
2017-05-01T01:35:16.460Z,72871
2017-05-01T01:35:26.263Z,72867
2017-05-01T01:35:36.067Z,72871
2017-05-01T01:35:46.155Z,72871
2017-05-01T01:35:56.250Z,72871
2017-05-01T01:36:06.058Z,72871
2017-05-01T01:36:16.156Z,72872
2017-05-01T01:36:25.962Z,72876
2017-05-01T01:36:36.057Z,72869
2017-05-01T01:36:46.153Z,72874
2017-05-01T01:36:56.248Z,72876
2017-05-01T01:37:06.338Z,72874
2017-05-01T01:37:16.477Z,72877
2017-05-01T01:37:26.569Z,72878
2017-05-01T01:37:36.667Z,72881
2017-05-01T01:37:46.771Z,72878
2017-05-01T01:37:56.869Z,72884
2017-05-01T01:38:06.968Z,72877
2017-05-01T01:38:16.797Z,72881
2017-05-01T01:38:26.897Z,72889
2017-05-01T01:38:36.989Z,72882
2017-05-01T01:38:47.086Z,72886
2017-05-01T01:38:56.930Z,72876
2017-05-01T01:39:07.027Z,72878
2017-05-01T01:39:17.128Z,72874
2017-05-01T01:39:26.934Z,72871
2017-05-01T01:39:37.023Z,72874
2017-05-01T01:39:47.120Z,72874
2017-05-01T01:39:56.925Z,72875
2017-05-01T01:40:06.725Z,72870
2017-05-01T01:40:16.521Z,72868
2017-05-01T01:40:26.614Z,72869
2017-05-01T01:40:36.705Z,72873
2017-05-01T01:40:46.792Z,72869
2017-05-01T01:40:56.882Z,72871
2017-05-01T01:41:06.683Z,72871
2017-05-01T01:41:16.768Z,72870
2017-05-01T01:41:26.860Z,72871
2017-05-01T01:41:36.375Z,72875
2017-05-01T01:41:46.468Z,72874
2017-05-01T01:41:56.560Z,72874
2017-05-01T01:42:06.366Z,72874
2017-05-01T01:42:16.165Z,72873
2017-05-01T01:42:26.250Z,72871
2017-05-01T01:42:36.057Z,72873
2017-05-01T01:42:45.862Z,72873
2017-05-01T01:42:55.956Z,72873
2017-05-01T01:43:06.043Z,72875
2017-05-01T01:43:15.844Z,72874
2017-05-01T01:43:25.939Z,72870
2017-05-01T01:43:36.030Z,72875
2017-05-01T01:43:46.124Z,72875
2017-05-01T01:43:56.263Z,72875
2017-05-01T01:44:06.350Z,72875
2017-05-01T01:44:16.460Z,72881
2017-05-01T01:44:26.557Z,72878
2017-05-01T01:44:36.654Z,72878
2017-05-01T01:44:46.752Z,72882
2017-05-01T01:44:56.852Z,72882
2017-05-01T01:45:06.672Z,72881
2017-05-01T01:45:16.763Z,72877
2017-05-01T01:45:26.854Z,72880
2017-05-01T01:45:36.409Z,72881
2017-05-01T01:45:46.501Z,72878
2017-05-01T01:45:56.629Z,72880
2017-05-01T01:46:06.724Z,72882
2017-05-01T01:46:16.524Z,72885
2017-05-01T01:46:26.626Z,72887
2017-05-01T01:46:36.714Z,72889
2017-05-01T01:46:46.810Z,72890
2017-05-01T01:46:56.903Z,72891
2017-05-01T01:47:06.999Z,72888
2017-05-01T01:47:16.805Z,72892
2017-05-01T01:47:26.617Z,72888
2017-05-01T01:47:36.421Z,72885
2017-05-01T01:47:46.516Z,72886
2017-05-01T01:47:56.606Z,72884
2017-05-01T01:48:06.414Z,72881
2017-05-01T01:48:16.223Z,72899
2017-05-01T01:48:26.028Z,72895
2017-05-01T01:48:36.126Z,72891
2017-05-01T01:48:46.222Z,72890
2017-05-01T01:48:56.323Z,72887
2017-05-01T01:49:06.429Z,72881
2017-05-01T01:49:16.239Z,72876
2017-05-01T01:49:26.344Z,72874
2017-05-01T01:49:36.149Z,72874
2017-05-01T01:49:46.241Z,72868
2017-05-01T01:49:56.338Z,72872
2017-05-01T01:50:06.433Z,72875
2017-05-01T01:50:16.236Z,72873
2017-05-01T01:50:26.332Z,72870
2017-05-01T01:50:36.426Z,72878
2017-05-01T01:50:46.515Z,72878
2017-05-01T01:50:56.608Z,72870
2017-05-01T01:51:06.416Z,72870
2017-05-01T01:51:16.219Z,72868
2017-05-01T01:51:26.030Z,72872
2017-05-01T01:51:36.121Z,72874
2017-05-01T01:51:46.208Z,72881
2017-05-01T01:51:56.011Z,72880
2017-05-01T01:52:05.818Z,72880
2017-05-01T01:52:15.627Z,72883
2017-05-01T01:52:25.715Z,72877
2017-05-01T01:52:35.806Z,72874
2017-05-01T01:52:45.892Z,72875
2017-05-01T01:52:55.987Z,72871
2017-05-01T01:53:06.085Z,72873
2017-05-01T01:53:16.175Z,72875
2017-05-01T01:53:26.272Z,72876
2017-05-01T01:53:36.368Z,72880
2017-05-01T01:53:46.466Z,72879
2017-05-01T01:53:56.288Z,72879
2017-05-01T01:54:06.389Z,72883
2017-05-01T01:54:16.481Z,72885
2017-05-01T01:54:26.578Z,72884
2017-05-01T01:54:36.678Z,72884
2017-05-01T01:54:46.492Z,72884
2017-05-01T01:54:56.619Z,72886
2017-05-01T01:55:06.713Z,72889
2017-05-01T01:55:16.802Z,72885
2017-05-01T01:55:26.903Z,72882
2017-05-01T01:55:36.708Z,72883
2017-05-01T01:55:46.800Z,72877
2017-05-01T01:55:56.890Z,72878
2017-05-01T01:56:06.990Z,72879
2017-05-01T01:56:16.796Z,72876
2017-05-01T01:56:26.887Z,72875
2017-05-01T01:56:36.978Z,72876
2017-05-01T01:56:46.789Z,72879
2017-05-01T01:56:56.876Z,72877
2017-05-01T01:57:06.968Z,72874
2017-05-01T01:57:16.483Z,72876
2017-05-01T01:57:26.573Z,72871
2017-05-01T01:57:36.663Z,72877
2017-05-01T01:57:46.760Z,72874
2017-05-01T01:57:56.852Z,72873
2017-05-01T01:58:06.657Z,72871
2017-05-01T01:58:16.747Z,72874
2017-05-01T01:58:26.839Z,72875
2017-05-01T01:58:36.934Z,72873
2017-05-01T01:58:46.744Z,72875
2017-05-01T01:58:56.848Z,72874
2017-05-01T01:59:06.938Z,72878
2017-05-01T01:59:17.035Z,72876
2017-05-01T01:59:26.838Z,72877
2017-05-01T01:59:36.926Z,72874
2017-05-01T01:59:46.732Z,72879
2017-05-01T01:59:56.827Z,72876
2017-05-01T02:00:06.636Z,72880
2017-05-01T02:00:16.447Z,72874
2017-05-01T02:00:26.548Z,72874
2017-05-01T02:00:36.640Z,72878
2017-05-01T02:00:46.735Z,72874
2017-05-01T02:00:56.834Z,72880
2017-05-01T02:01:06.927Z,72876
2017-05-01T02:01:17.021Z,72878
2017-05-01T02:01:27.110Z,72879
2017-05-01T02:01:37.201Z,72877
2017-05-01T02:01:47.005Z,72878
2017-05-01T02:01:57.098Z,72882
2017-05-01T02:02:06.903Z,72880
2017-05-01T02:02:16.706Z,72877
2017-05-01T02:02:26.797Z,72877
2017-05-01T02:02:36.891Z,72879
2017-05-01T02:02:46.983Z,72879
2017-05-01T02:02:57.080Z,72878
2017-05-01T02:03:07.172Z,72881
2017-05-01T02:03:16.979Z,72880
2017-05-01T02:03:26.784Z,72875
2017-05-01T02:03:36.879Z,72879
2017-05-01T02:03:46.972Z,72879
2017-05-01T02:03:57.070Z,72880
2017-05-01T02:04:07.163Z,72883
2017-05-01T02:04:16.971Z,72886
2017-05-01T02:04:26.786Z,72886
2017-05-01T02:04:36.890Z,72883
2017-05-01T02:04:46.981Z,72887
2017-05-01T02:04:57.080Z,72879
2017-05-01T02:05:07.174Z,72885
2017-05-01T02:05:16.985Z,72884
2017-05-01T02:05:27.082Z,72882
2017-05-01T02:05:37.170Z,72879
2017-05-01T02:05:46.975Z,72877
2017-05-01T02:05:57.075Z,72884
2017-05-01T02:06:07.165Z,72881
2017-05-01T02:06:17.262Z,72880
2017-05-01T02:06:27.397Z,72881
2017-05-01T02:06:37.484Z,72877
2017-05-01T02:06:47.296Z,72874
2017-05-01T02:06:57.394Z,72877
2017-05-01T02:07:07.197Z,72877
2017-05-01T02:07:17.284Z,72881
2017-05-01T02:07:27.368Z,72881
2017-05-01T02:07:37.457Z,72877
2017-05-01T02:07:47.561Z,72877
2017-05-01T02:07:57.369Z,72870
2017-05-01T02:08:07.466Z,72871
2017-05-01T02:08:17.272Z,72866
2017-05-01T02:08:27.365Z,72853
2017-05-01T02:08:37.469Z,72855
2017-05-01T02:08:47.273Z,72848